Main page
METAR-TAF:

METAR-TAF

Airports :

Shanghai-Pudong, China

Shanghai Pudong International Airport

latitude: 31-07N, longitude: 121-46E, elevation: 4 m

Current weather observation

The report was made 23 minutes ago, at 11:00 UTC
Wind 6 kt from the Southeast
Temperature 16°C
Humidity 63%
Pressure 1015 hPa
Visibility 10 km or more
no clouds below 1500 m and no cumulonimbus

METAR: ZSPD 261100Z 14003MPS CAVOK 16/09 Q1015 NOSIG

Time: 19:23 (11:23 UTC)

Forecast

The report was made 8 hours and 9 minutes ago, at 03:14 UTC
Forecast valid from 26 at 06 UTC to 27 at 06 UTC
Wind 6 kt from the South/Southeast
Visibility: 5000 m
Scattered clouds at a height of 2000 ft
mist

TAF: ZSPD 260314Z 2606/2706 15003MPS 5000 BR SCT020 TX26/2705Z TN15/2621Z

Weather observations and forecasts of more than 4000 airports (METAR and TAF reports).

The available stations are represented by yellow and red dots on the map.

Hover mouse over dot to see the name of the station.

Then click to see weather observations and forecasts.

To change the map : click on the green buttons with a black cross to zoom in, on the green button with a dash to zoom out, or on the green arrows for adjacent maps.


METAR-TAF: